Time;durP1;ratioP1;P1;durP2;ratioP2;P2;SDS_P1;SDS_P2;PMS_P1;PMS_P2;Temp;Humidity;BMP_temperature;BMP_pressure;BME280_temperature;BME280_humidity;BME280_pressure;Samples;Min_cycle;Max_cycle;Signal;HPM_P1;HPM_P2
2021/10/25 00:02:23;;;;;;;0.00;0.00;;;9.60;54.30;;;;;;5057245;28;20039;-73
2021/10/25 00:04:49;;;;;;;0.00;0.00;;;9.50;54.20;;;;;;5072701;28;20028;-73
2021/10/25 00:07:16;;;;;;;0.00;0.00;;;9.50;54.10;;;;;;5056867;28;20040;-73
2021/10/25 00:09:42;;;;;;;0.00;0.00;;;9.50;54.20;;;;;;5072575;28;20029;-73
2021/10/25 00:12:07;;;;;;;0.00;0.00;;;9.50;54.10;;;;;;5057106;28;20109;-74
2021/10/25 00:14:34;;;;;;;0.00;0.00;;;9.50;54.10;;;;;;5057362;28;20047;-74
2021/10/25 00:16:59;;;;;;;0.00;0.00;;;9.40;54.10;;;;;;5056812;28;20540;-74
2021/10/25 00:19:25;;;;;;;0.00;0.00;;;9.40;54.20;;;;;;5056531;28;20053;-74
2021/10/25 00:21:51;;;;;;;0.00;0.00;;;9.40;54.40;;;;;;5056705;28;20546;-74
2021/10/25 00:24:17;;;;;;;0.00;0.00;;;9.40;54.40;;;;;;5056711;28;20090;-73
2021/10/25 00:26:43;;;;;;;0.00;0.00;;;9.40;54.40;;;;;;5055547;28;20052;-73
2021/10/25 00:29:09;;;;;;;0.00;0.00;;;9.30;54.30;;;;;;5057117;28;20036;-73
2021/10/25 00:31:35;;;;;;;0.00;0.00;;;9.30;54.30;;;;;;5055356;28;20033;-73
2021/10/25 00:34:01;;;;;;;0.00;0.00;;;9.20;54.30;;;;;;5056420;28;20021;-74
2021/10/25 00:36:27;;;;;;;0.00;0.00;;;9.30;54.50;;;;;;5056690;28;20027;-74
2021/10/25 00:38:53;;;;;;;0.00;0.00;;;9.20;54.50;;;;;;5071957;28;20110;-74
2021/10/25 00:41:19;;;;;;;0.00;0.00;;;9.30;54.60;;;;;;5056498;28;20025;-74
2021/10/25 00:43:44;;;;;;;0.00;0.00;;;9.30;54.70;;;;;;5056469;28;20029;-74
2021/10/25 00:46:10;;;;;;;0.00;0.00;;;9.30;54.60;;;;;;5055909;28;20052;-74
2021/10/25 00:48:37;;;;;;;0.00;0.00;;;9.30;54.50;;;;;;5056066;28;20075;-74
2021/10/25 00:51:05;;;;;;;0.00;0.00;;;9.30;54.50;;;;;;5056693;28;20033;-72
2021/10/25 00:53:31;;;;;;;0.00;0.00;;;9.30;54.50;;;;;;5056461;28;20035;-74
2021/10/25 00:55:58;;;;;;;0.00;0.00;;;9.30;54.50;;;;;;5055064;28;20432;-74
2021/10/25 00:58:25;;;;;;;0.00;0.00;;;9.30;54.50;;;;;;5056035;28;20021;-73
2021/10/25 01:00:50;;;;;;;0.00;0.00;;;9.30;54.50;;;;;;5055963;28;20488;-73
2021/10/25 01:03:16;;;;;;;0.00;0.00;;;9.20;54.50;;;;;;5071909;28;20021;-73
2021/10/25 01:05:42;;;;;;;0.00;0.00;;;9.20;54.60;;;;;;5056071;28;20461;-73
2021/10/25 01:08:08;;;;;;;0.00;0.00;;;9.20;54.70;;;;;;5071387;28;20071;-74
2021/10/25 01:10:34;;;;;;;0.00;0.00;;;9.20;54.80;;;;;;5055899;28;20040;-72
2021/10/25 01:13:00;;;;;;;0.00;0.00;;;9.20;54.80;;;;;;5054639;28;20033;-73
2021/10/25 01:15:26;;;;;;;0.00;0.00;;;9.20;54.80;;;;;;5055890;28;20385;-73
2021/10/25 01:17:53;;;;;;;0.00;0.00;;;9.10;54.70;;;;;;5055499;28;20111;-73
2021/10/25 01:20:19;;;;;;;0.00;0.00;;;9.10;54.70;;;;;;5056316;28;20519;-72
2021/10/25 01:22:45;;;;;;;0.00;0.00;;;9.10;54.70;;;;;;5055158;28;20461;-74
2021/10/25 01:25:12;;;;;;;0.00;0.00;;;9.10;54.60;;;;;;5071279;28;20028;-72
2021/10/25 01:27:38;;;;;;;0.00;0.00;;;9.10;54.50;;;;;;5055342;28;20036;-73
2021/10/25 01:30:05;;;;;;;0.00;0.00;;;9.00;54.40;;;;;;5055583;28;20490;-74
2021/10/25 01:32:31;;;;;;;0.00;0.00;;;9.00;54.30;;;;;;5055708;28;20120;-74
2021/10/25 01:34:57;;;;;;;0.00;0.00;;;9.00;54.30;;;;;;5070916;28;20052;-75
2021/10/25 01:37:22;;;;;;;0.00;0.00;;;8.90;54.30;;;;;;5056127;28;20494;-74
2021/10/25 01:39:48;;;;;;;0.00;0.00;;;8.90;54.30;;;;;;5070771;28;20107;-74
2021/10/25 01:42:14;;;;;;;0.00;0.00;;;8.90;54.40;;;;;;5056157;28;20037;-74
2021/10/25 01:44:40;;;;;;;0.00;0.00;;;8.90;54.40;;;;;;5055650;28;20030;-73
2021/10/25 01:47:06;;;;;;;0.00;0.00;;;8.90;54.40;;;;;;5055225;28;20036;-74
2021/10/25 01:49:32;;;;;;;0.00;0.00;;;8.90;54.70;;;;;;5055619;28;20385;-74
2021/10/25 01:51:57;;;;;;;0.00;0.00;;;8.90;54.70;;;;;;5055181;28;20029;-75
2021/10/25 01:54:23;;;;;;;0.00;0.00;;;8.90;54.80;;;;;;5053769;28;20471;-74
2021/10/25 01:56:50;;;;;;;0.00;0.00;;;8.90;54.70;;;;;;5054178;28;20107;-73
2021/10/25 01:59:15;;;;;;;0.00;0.00;;;8.80;54.70;;;;;;5054847;28;20083;-75
2021/10/25 02:01:41;;;;;;;0.00;0.00;;;8.80;54.90;;;;;;5054945;28;20029;-74
2021/10/25 02:04:07;;;;;;;0.00;0.00;;;8.80;55.00;;;;;;5054928;28;20021;-74
2021/10/25 02:06:33;;;;;;;0.00;0.00;;;8.80;55.30;;;;;;5054565;28;20472;-74
2021/10/25 02:09:00;;;;;;;0.00;0.00;;;8.80;55.30;;;;;;5055398;28;20040;-74
2021/10/25 02:11:26;;;;;;;0.00;0.00;;;8.80;55.40;;;;;;5054872;28;20108;-73
2021/10/25 02:13:52;;;;;;;0.00;0.00;;;8.80;55.40;;;;;;5054524;28;20461;-73
2021/10/25 02:16:18;;;;;;;0.00;0.00;;;8.70;55.30;;;;;;5054532;28;20021;-73
2021/10/25 02:18:44;;;;;;;0.00;0.00;;;8.70;55.40;;;;;;5054383;28;20512;-73
2021/10/25 02:21:11;;;;;;;0.00;0.00;;;8.70;55.60;;;;;;5070172;28;20032;-74
2021/10/25 02:23:38;;;;;;;0.00;0.00;;;8.70;55.60;;;;;;5054933;28;20053;-74
2021/10/25 02:26:04;;;;;;;0.00;0.00;;;8.70;55.90;;;;;;5054369;28;20029;-74
2021/10/25 02:28:32;;;;;;;0.00;0.00;;;8.70;56.00;;;;;;5054299;28;20025;-75
2021/10/25 02:30:57;;;;;;;0.00;0.00;;;8.60;56.40;;;;;;5070278;28;20116;-76
2021/10/25 02:33:23;;;;;;;0.00;0.00;;;8.60;56.50;;;;;;5069949;28;20469;-74
2021/10/25 02:35:50;;;;;;;0.00;0.00;;;8.50;56.50;;;;;;5054583;28;20366;-74
2021/10/25 02:38:17;;;;;;;0.00;0.00;;;8.40;56.60;;;;;;5054593;28;20029;-74
2021/10/25 02:40:45;;;;;;;0.00;0.00;;;8.40;56.80;;;;;;5054782;28;20091;-74
2021/10/25 02:43:10;;;;;;;0.00;0.00;;;8.30;56.90;;;;;;5069660;28;20433;-72
2021/10/25 02:45:37;;;;;;;0.00;0.00;;;8.10;57.00;;;;;;5053865;28;20017;-73
2021/10/25 02:48:05;;;;;;;0.00;0.00;;;8.10;57.20;;;;;;5054651;28;20365;-74
2021/10/25 02:50:31;;;;;;;0.00;0.00;;;8.00;57.80;;;;;;5053986;28;20489;-73
2021/10/25 02:52:57;;;;;;;0.00;0.00;;;8.00;57.90;;;;;;5054181;28;20029;-73
2021/10/25 02:55:22;;;;;;;0.00;0.00;;;7.80;57.80;;;;;;5053878;28;20031;-74
2021/10/25 02:57:48;;;;;;;0.00;0.00;;;7.80;57.90;;;;;;5052958;28;20435;-74
2021/10/25 03:00:16;;;;;;;0.00;0.00;;;7.70;57.90;;;;;;5053245;28;20032;-73
2021/10/25 03:02:44;;;;;;;0.00;0.00;;;7.70;58.50;;;;;;5052506;28;20056;-74
2021/10/25 03:05:10;;;;;;;0.00;0.00;;;7.60;58.60;;;;;;5053927;28;20032;-74
2021/10/25 03:07:36;;;;;;;0.00;0.00;;;7.50;58.50;;;;;;5053536;28;20036;-73
2021/10/25 03:10:03;;;;;;;0.00;0.00;;;7.50;58.60;;;;;;5053345;28;20525;-74
2021/10/25 03:12:29;;;;;;;0.00;0.00;;;7.40;58.60;;;;;;5054020;28;20066;-74
2021/10/25 03:14:55;;;;;;;0.00;0.00;;;7.40;59.00;;;;;;5053686;28;20461;-73
2021/10/25 03:17:21;;;;;;;0.00;0.00;;;7.40;58.90;;;;;;5069278;28;20032;-74
2021/10/25 03:19:47;;;;;;;0.00;0.00;;;7.30;59.30;;;;;;5069827;28;20024;-75
2021/10/25 03:22:14;;;;;;;0.00;0.00;;;7.30;59.30;;;;;;5053557;28;20082;-74
2021/10/25 03:24:41;;;;;;;0.00;0.00;;;7.30;59.30;;;;;;5069232;28;20056;-74
2021/10/25 03:27:07;;;;;;;0.00;0.00;;;7.20;59.30;;;;;;5053635;28;20535;-75
2021/10/25 03:29:33;;;;;;;0.00;0.00;;;7.20;59.30;;;;;;5069044;28;20207;-74
2021/10/25 03:31:59;;;;;;;0.00;0.00;;;7.20;60.00;;;;;;5053455;28;20017;-74
2021/10/25 03:34:26;;;;;;;0.00;0.00;;;7.20;60.00;;;;;;5053713;28;20441;-74
2021/10/25 03:36:53;;;;;;;0.00;0.00;;;7.10;59.90;;;;;;5053825;28;20029;-75
2021/10/25 03:39:20;;;;;;;0.00;0.00;;;7.10;59.90;;;;;;5052279;28;20475;-73
2021/10/25 03:41:48;;;;;;;0.00;0.00;;;7.10;59.90;;;;;;5052264;28;20033;-74
2021/10/25 03:44:18;;;;;;;0.00;0.00;;;7.10;60.30;;;;;;5053807;28;20029;-74
2021/10/25 03:52:09;;;;;;;0.00;0.00;;;7.00;60.10;;;;;;5053823;28;20040;-73
2021/10/25 03:54:47;;;;;;;0.00;0.00;;;7.00;60.10;;;;;;5052558;28;20068;-74
2021/10/25 04:27:18;;;;;;;0.00;0.00;;;6.70;61.10;;;;;;5055571;28;20436;-73
2021/10/25 04:29:47;;;;;;;0.00;0.00;;;6.80;61.20;;;;;;5056641;28;20045;-74
2021/10/25 04:32:13;;;;;;;0.00;0.00;;;6.80;60.90;;;;;;5057141;28;20466;-75
2021/10/25 04:34:39;;;;;;;0.00;0.00;;;6.80;60.90;;;;;;5056213;28;20036;-75
2021/10/25 04:37:04;;;;;;;0.00;0.00;;;6.70;61.10;;;;;;5056205;28;20079;-76
2021/10/25 04:39:30;;;;;;;0.00;0.00;;;6.80;61.20;;;;;;5056367;28;20024;-74
2021/10/25 04:41:56;;;;;;;0.00;0.00;;;6.80;61.10;;;;;;5056143;28;20432;-74
2021/10/25 04:44:21;;;;;;;0.00;0.00;;;6.80;61.10;;;;;;5056471;28;20047;-74
2021/10/25 04:46:47;;;;;;;0.00;0.00;;;6.80;61.00;;;;;;5056126;28;20381;-75
2021/10/25 04:49:13;;;;;;;0.00;0.00;;;6.90;61.00;;;;;;5056203;28;20488;-73
2021/10/25 04:51:39;;;;;;;0.00;0.00;;;6.90;60.90;;;;;;5056529;28;20025;-74
2021/10/25 04:54:04;;;;;;;0.00;0.00;;;6.90;60.90;;;;;;5056591;28;20465;-74
2021/10/25 04:56:31;;;;;;;0.00;0.00;;;7.00;60.90;;;;;;5071583;28;20025;-75
2021/10/25 04:58:57;;;;;;;0.00;0.00;;;7.00;60.80;;;;;;5056200;28;20025;-73
2021/10/25 05:01:23;;;;;;;0.00;0.00;;;7.00;60.70;;;;;;5054730;28;20108;-74
2021/10/25 05:03:49;;;;;;;0.00;0.00;;;7.00;60.60;;;;;;5055709;28;20029;-75
2021/10/25 05:06:18;;;;;;;0.00;0.00;;;7.10;60.60;;;;;;5071489;28;20036;-74
2021/10/25 05:08:46;;;;;;;0.00;0.00;;;7.10;60.40;;;;;;5054683;28;20029;-73
2021/10/25 05:11:12;;;;;;;0.00;0.00;;;7.10;60.20;;;;;;5054684;28;20033;-73
2021/10/25 05:13:38;;;;;;;0.00;0.00;;;7.10;60.20;;;;;;5055653;28;20114;-73
2021/10/25 05:16:05;;;;;;;0.00;0.00;;;7.20;60.20;;;;;;5055654;28;20465;-75
2021/10/25 05:18:31;;;;;;;0.00;0.00;;;7.20;60.20;;;;;;5054962;28;20033;-72
2021/10/25 05:20:56;;;;;;;0.00;0.00;;;7.30;60.10;;;;;;5056287;28;20087;-75
2021/10/25 05:23:22;;;;;;;0.00;0.00;;;7.30;60.00;;;;;;5055238;28;20045;-75
2021/10/25 05:25:50;;;;;;;0.00;0.00;;;7.30;59.90;;;;;;5072675;28;20094;-75
2021/10/25 05:28:16;;;;;;;0.00;0.00;;;7.40;59.80;;;;;;5071390;28;20548;-74
2021/10/25 05:30:42;;;;;;;0.00;0.00;;;7.50;59.80;;;;;;5055653;28;20025;-74
2021/10/25 05:33:08;;;;;;;0.00;0.00;;;7.50;59.80;;;;;;5055789;28;20378;-74
2021/10/25 05:35:34;;;;;;;0.00;0.00;;;7.60;59.80;;;;;;5055709;28;20078;-75
2021/10/25 05:38:01;;;;;;;0.10;0.00;;;7.70;59.80;;;;;;5055657;28;20033;-75
2021/10/25 05:40:27;;;;;;;0.00;0.00;;;7.70;59.70;;;;;;5055987;28;20052;-75
2021/10/25 05:42:54;;;;;;;0.00;0.00;;;7.70;59.60;;;;;;5055125;28;20114;-76
2021/10/25 05:45:19;;;;;;;0.00;0.00;;;7.80;59.60;;;;;;5055816;28;20103;-75
2021/10/25 05:47:47;;;;;;;0.00;0.00;;;7.80;59.60;;;;;;5055506;28;20439;-73
2021/10/25 05:50:14;;;;;;;0.00;0.00;;;7.80;59.50;;;;;;5054147;28;20484;-75
2021/10/25 05:52:39;;;;;;;0.00;0.00;;;7.90;59.50;;;;;;5055195;28;20025;-74
2021/10/25 05:55:06;;;;;;;0.00;0.00;;;7.90;59.50;;;;;;5055082;28;20048;-75
2021/10/25 05:57:32;;;;;;;0.00;0.00;;;7.90;59.40;;;;;;5055008;28;20029;-74
2021/10/25 05:59:58;;;;;;;0.00;0.00;;;8.00;59.40;;;;;;5055358;28;20095;-74
2021/10/25 06:02:37;;;;;;;0.00;0.00;;;8.00;59.40;;;;;;5054794;28;20024;-75
2021/10/25 06:05:06;;;;;;;0.00;0.00;;;8.00;59.30;;;;;;5070826;28;20064;-74
2021/10/25 06:07:32;;;;;;;0.00;0.00;;;8.00;59.30;;;;;;5055815;28;20120;-75
2021/10/25 06:09:58;;;;;;;0.00;0.00;;;8.10;59.30;;;;;;5055173;28;20029;-75
2021/10/25 06:12:25;;;;;;;0.00;0.00;;;8.10;59.20;;;;;;5055090;28;20025;-73
2021/10/25 06:14:54;;;;;;;0.00;0.00;;;8.20;59.20;;;;;;5053395;28;20025;-74
2021/10/25 06:19:46;;;;;;;0.00;0.00;;;8.20;59.00;;;;;;5055138;28;20078;-73
2021/10/25 06:22:12;;;;;;;0.00;0.00;;;8.30;59.00;;;;;;5055533;28;20104;-76
2021/10/25 06:24:38;;;;;;;0.00;0.00;;;8.40;58.90;;;;;;5054919;28;20102;-75
2021/10/25 06:27:04;;;;;;;0.00;0.00;;;8.40;58.80;;;;;;5054168;28;20037;-74
2021/10/25 06:29:30;;;;;;;0.00;0.00;;;8.40;58.70;;;;;;5054072;28;20043;-74
2021/10/25 06:31:57;;;;;;;0.17;0.00;;;8.50;58.70;;;;;;5054907;28;20151;-74
2021/10/25 06:34:25;;;;;;;0.00;0.00;;;8.50;58.60;;;;;;5054780;28;20024;-74
2021/10/25 06:36:52;;;;;;;0.00;0.00;;;8.50;58.50;;;;;;5054347;28;20441;-74
2021/10/25 06:39:28;;;;;;;0.00;0.00;;;8.60;58.50;;;;;;5054738;28;20528;-74
2021/10/25 06:41:54;;;;;;;0.00;0.00;;;8.60;58.20;;;;;;5054322;28;20469;-74
2021/10/25 06:44:20;;;;;;;0.00;0.00;;;8.70;58.10;;;;;;5053913;28;20025;-75
2021/10/25 06:46:46;;;;;;;0.00;0.00;;;8.80;57.90;;;;;;5053882;28;20472;-75
2021/10/25 06:49:11;;;;;;;0.00;0.00;;;8.90;57.70;;;;;;5053851;28;20461;-75
2021/10/25 06:51:38;;;;;;;0.00;0.00;;;8.90;57.50;;;;;;5054107;28;20032;-74
2021/10/25 06:54:04;;;;;;;0.00;0.00;;;9.00;57.30;;;;;;5069513;28;20040;-74
2021/10/25 06:56:30;;;;;;;0.00;0.00;;;9.10;57.10;;;;;;5053867;28;20036;-75
2021/10/25 06:58:56;;;;;;;0.00;0.00;;;9.20;56.90;;;;;;5053113;28;20021;-75
2021/10/25 07:01:23;;;;;;;0.00;0.00;;;9.30;56.60;;;;;;5053826;28;20104;-75
2021/10/25 07:03:48;;;;;;;0.00;0.00;;;9.40;56.30;;;;;;5052489;28;20032;-76
2021/10/25 07:06:17;;;;;;;0.00;0.00;;;9.60;55.90;;;;;;5069358;28;20036;-76
2021/10/25 07:08:45;;;;;;;0.00;0.00;;;9.80;55.50;;;;;;5053768;28;20048;-76
2021/10/25 07:11:14;;;;;;;0.00;0.00;;;10.00;55.20;;;;;;5054110;28;20028;-74
2021/10/25 07:13:50;;;;;;;0.00;0.00;;;10.20;54.90;;;;;;5054298;28;20071;-76
2021/10/25 07:16:22;;;;;;;0.00;0.00;;;10.40;54.50;;;;;;5053659;28;20021;-75
2021/10/25 08:08:49;;;;;;;0.00;0.00;;;20.10;41.30;;;;;;5048249;28;20512;-74
2021/10/25 08:11:15;;;;;;;0.00;0.00;;;21.00;39.40;;;;;;5072513;28;20102;-74
2021/10/25 08:13:43;;;;;;;0.00;0.00;;;21.80;38.00;;;;;;5057120;28;20044;-74
2021/10/25 08:21:13;;;;;;;0.00;0.00;;;23.50;35.00;;;;;;5056651;28;20117;-75
2021/10/25 08:23:40;;;;;;;0.00;0.00;;;23.90;34.10;;;;;;5055521;28;20053;-75
2021/10/25 08:26:08;;;;;;;0.00;0.00;;;24.20;33.40;;;;;;5056586;28;20083;-76
2021/10/25 08:28:35;;;;;;;0.00;0.00;;;24.60;33.00;;;;;;5056799;28;20040;-76
2021/10/25 08:31:01;;;;;;;0.00;0.00;;;25.10;32.40;;;;;;5056878;28;20104;-75
2021/10/25 08:41:39;;;;;;;0.00;0.00;;;26.70;31.00;;;;;;5056254;28;20488;-75
2021/10/25 08:44:07;;;;;;;0.00;0.00;;;27.00;30.60;;;;;;5056606;28;20037;-74
2021/10/25 08:46:33;;;;;;;0.00;0.00;;;27.10;30.00;;;;;;5056219;28;20392;-74
2021/10/25 08:48:59;;;;;;;0.00;0.00;;;27.30;30.00;;;;;;5056321;28;20037;-74
2021/10/25 08:51:25;;;;;;;0.00;0.00;;;27.60;29.70;;;;;;5056328;28;20025;-74
2021/10/25 08:53:52;;;;;;;0.00;0.00;;;27.70;29.40;;;;;;5056469;28;20032;-76
2021/10/25 08:56:18;;;;;;;0.00;0.00;;;27.70;29.40;;;;;;5056302;28;20025;-75
2021/10/25 08:58:49;;;;;;;0.00;0.00;;;28.00;29.20;;;;;;5056277;28;20067;-74
2021/10/25 09:01:32;;;;;;;0.00;0.00;;;28.30;29.10;;;;;;5056651;28;20033;-73
2021/10/25 09:04:04;;;;;;;0.00;0.00;;;28.60;28.50;;;;;;5072547;28;20444;-74
2021/10/25 09:06:30;;;;;;;0.00;0.00;;;28.90;28.60;;;;;;5054985;28;20035;-75
2021/10/25 09:09:05;;;;;;;0.00;0.00;;;29.10;28.70;;;;;;5056469;28;20385;-74
2021/10/25 09:11:31;;;;;;;0.00;0.00;;;29.30;28.20;;;;;;5055700;28;20025;-75
2021/10/25 09:13:58;;;;;;;0.00;0.00;;;29.50;28.50;;;;;;5055973;28;20032;-74
2021/10/25 09:16:24;;;;;;;0.00;0.00;;;29.70;28.20;;;;;;5056023;28;20021;-76
2021/10/25 09:18:50;;;;;;;0.00;0.00;;;29.90;28.30;;;;;;5056286;28;20376;-75
2021/10/25 09:21:16;;;;;;;0.00;0.00;;;30.10;27.90;;;;;;5054599;28;20119;-76
2021/10/25 09:23:50;;;;;;;0.00;0.00;;;30.50;27.70;;;;;;5054347;28;20405;-75
2021/10/25 09:26:18;;;;;;;0.00;0.00;;;30.80;27.60;;;;;;5055446;28;20057;-74
2021/10/25 09:28:51;;;;;;;0.00;0.00;;;31.20;27.40;;;;;;5056091;28;20033;-74
2021/10/25 09:31:29;;;;;;;0.00;0.00;;;31.30;27.20;;;;;;5054838;28;20029;-75
2021/10/25 09:33:59;;;;;;;0.00;0.00;;;31.30;27.10;;;;;;5055947;28;20401;-75
2021/10/25 09:36:35;;;;;;;0.00;0.00;;;31.50;27.00;;;;;;5055822;28;20480;-77
2021/10/25 09:41:47;;;;;;;0.00;0.00;;;31.80;26.80;;;;;;5055315;28;20108;-75
2021/10/25 09:50:08;;;;;;;0.00;0.00;;;32.30;26.40;;;;;;5046668;28;20474;-75
2021/10/25 09:52:40;;;;;;;0.00;0.00;;;32.60;26.40;;;;;;5054832;28;20419;-76
2021/10/25 09:55:07;;;;;;;0.00;0.00;;;32.80;26.30;;;;;;5054753;28;20100;-73
2021/10/25 09:57:59;;;;;;;0.00;0.00;;;32.90;26.10;;;;;;5053792;28;20033;-75
2021/10/25 10:00:22;;;;;;;0.00;0.00;;;32.90;26.10;;;;;;5055473;28;20051;-75
2021/10/25 10:02:48;;;;;;;0.00;0.00;;;33.00;26.00;;;;;;5053736;28;20029;-75
2021/10/25 10:05:17;;;;;;;0.00;0.00;;;33.10;26.00;;;;;;5053584;28;20036;-76
2021/10/25 10:07:44;;;;;;;0.00;0.00;;;33.20;26.30;;;;;;5054790;28;20075;-76
2021/10/25 10:10:12;;;;;;;0.00;0.00;;;33.50;25.70;;;;;;5055007;28;20032;-76
2021/10/25 10:12:40;;;;;;;0.00;0.00;;;33.60;25.60;;;;;;5054898;28;20021;-76
2021/10/25 10:15:08;;;;;;;0.00;0.00;;;33.90;25.50;;;;;;5054766;28;20057;-76
2021/10/25 10:17:46;;;;;;;0.00;0.00;;;34.00;25.40;;;;;;5054263;28;20033;-75
2021/10/25 10:20:14;;;;;;;0.00;0.00;;;34.00;25.20;;;;;;5054618;28;20021;-74
2021/10/25 10:22:49;;;;;;;0.00;0.00;;;34.00;25.30;;;;;;5055002;28;20024;-75
2021/10/25 10:25:36;;;;;;;0.00;0.00;;;33.90;25.10;;;;;;5054360;28;20090;-74
2021/10/25 10:28:08;;;;;;;0.00;0.00;;;33.80;24.80;;;;;;5054961;28;20492;-76
2021/10/25 10:30:56;;;;;;;0.00;0.00;;;33.90;25.00;;;;;;5053094;28;20040;-77
2021/10/25 10:33:43;;;;;;;0.00;0.00;;;34.10;25.00;;;;;;5054275;28;20116;-76
2021/10/25 10:36:18;;;;;;;0.00;0.00;;;34.40;25.00;;;;;;5054586;28;20029;-75
2021/10/25 10:38:52;;;;;;;0.00;0.00;;;34.50;24.70;;;;;;5053059;28;20029;-74
2021/10/25 10:41:20;;;;;;;0.00;0.00;;;34.70;24.80;;;;;;5053837;28;20537;-77
2021/10/25 10:44:02;;;;;;;0.00;0.00;;;34.80;24.90;;;;;;5054208;28;20377;-75
2021/10/25 10:46:40;;;;;;;0.00;0.00;;;34.90;24.60;;;;;;5069581;28;20025;-77
2021/10/25 10:49:38;;;;;;;0.00;0.00;;;35.00;24.60;;;;;;5054148;28;20037;-76
2021/10/25 10:55:25;;;;;;;0.00;0.00;;;35.20;24.50;;;;;;5053895;28;20023;-75
2021/10/25 11:00:25;;;;;;;0.00;0.00;;;35.20;24.50;;;;;;5053996;28;20025;-78
2021/10/25 11:02:52;;;;;;;0.00;0.00;;;35.20;24.30;;;;;;5053552;28;20120;-76
2021/10/25 11:05:32;;;;;;;0.00;0.00;;;35.20;24.40;;;;;;5053989;28;20107;-75
2021/10/25 11:08:24;;;;;;;0.00;0.00;;;35.20;24.20;;;;;;5054065;28;20408;-75
2021/10/25 11:10:57;;;;;;;0.00;0.00;;;35.50;24.30;;;;;;5054484;28;20029;-74
2021/10/25 11:13:26;;;;;;;0.00;0.00;;;35.60;24.30;;;;;;5053960;28;20066;-76
2021/10/25 11:16:03;;;;;;;0.00;0.00;;;35.70;24.40;;;;;;5053477;28;20025;-76
2021/10/25 11:18:31;;;;;;;0.00;0.00;;;35.50;24.10;;;;;;5053804;28;20024;-77
2021/10/25 11:21:24;;;;;;;0.00;0.00;;;35.50;24.10;;;;;;5053742;28;20112;-74
2021/10/25 11:23:56;;;;;;;0.00;0.00;;;35.50;24.00;;;;;;5054350;28;20052;-76
2021/10/25 11:26:30;;;;;;;0.00;0.00;;;35.60;24.00;;;;;;5053367;28;20102;-76
2021/10/25 11:29:06;;;;;;;0.00;0.00;;;35.70;24.00;;;;;;5053871;28;20029;-75
2021/10/25 11:31:46;;;;;;;0.00;0.00;;;35.70;24.00;;;;;;5060363;28;20025;-74
2021/10/25 11:34:26;;;;;;;0.00;0.00;;;35.50;23.90;;;;;;5060894;28;20047;-75
2021/10/25 11:37:04;;;;;;;0.00;0.00;;;35.50;23.90;;;;;;5060795;28;20465;-76
2021/10/25 11:39:40;;;;;;;0.00;0.00;;;35.50;23.80;;;;;;5060556;28;20479;-75
2021/10/25 11:42:32;;;;;;;0.00;0.00;;;35.50;23.90;;;;;;5060225;28;20031;-74
2021/10/25 11:45:02;;;;;;;0.00;0.00;;;35.50;23.90;;;;;;5058465;28;20029;-75
2021/10/25 11:47:30;;;;;;;0.00;0.00;;;35.50;23.90;;;;;;5060033;28;20410;-75
2021/10/25 11:50:05;;;;;;;0.00;0.00;;;35.40;23.80;;;;;;5059671;28;20463;-75
2021/10/25 11:52:49;;;;;;;0.00;0.00;;;35.50;23.80;;;;;;5076193;28;20029;-76
2021/10/25 11:55:18;;;;;;;0.00;0.00;;;35.50;23.80;;;;;;5059409;28;20021;-76
2021/10/25 11:57:50;;;;;;;0.00;0.00;;;35.40;23.70;;;;;;5076072;28;20040;-75
2021/10/25 12:00:19;;;;;;;0.00;0.00;;;35.40;23.70;;;;;;5060165;28;20056;-77
2021/10/25 12:02:46;;;;;;;0.00;0.00;;;35.40;23.80;;;;;;5059594;28;20481;-75
2021/10/25 12:05:23;;;;;;;0.00;0.00;;;35.40;23.70;;;;;;5060250;28;20100;-76
2021/10/25 12:07:59;;;;;;;0.00;0.00;;;35.50;23.70;;;;;;5060307;28;20033;-75
2021/10/25 12:10:26;;;;;;;0.00;0.00;;;35.40;23.80;;;;;;5059287;28;20044;-75
2021/10/25 12:12:54;;;;;;;0.00;0.00;;;35.30;23.70;;;;;;5058815;28;20532;-76
2021/10/25 12:15:23;;;;;;;0.00;0.00;;;35.20;23.60;;;;;;5059066;28;20051;-76
2021/10/25 12:17:50;;;;;;;0.00;0.00;;;35.00;23.60;;;;;;5059943;28;20075;-76
2021/10/25 12:20:31;;;;;;;0.00;0.00;;;34.70;23.50;;;;;;5075463;28;20052;-75
2021/10/25 12:22:58;;;;;;;0.00;0.00;;;34.50;23.50;;;;;;5075397;28;20094;-75
2021/10/25 12:25:24;;;;;;;0.00;0.00;;;34.40;23.60;;;;;;5060639;28;20036;-75
2021/10/25 12:27:50;;;;;;;0.00;0.00;;;34.20;23.60;;;;;;5059712;28;20033;-75
2021/10/25 12:30:18;;;;;;;0.10;0.10;;;34.00;23.60;;;;;;5058569;28;20112;-75
2021/10/25 12:32:54;;;;;;;0.00;0.00;;;33.90;23.60;;;;;;5058723;28;20056;-75
2021/10/25 12:35:42;;;;;;;0.00;0.00;;;33.70;24.10;;;;;;5060134;28;20033;-74
2021/10/25 12:38:22;;;;;;;0.00;0.00;;;33.50;23.60;;;;;;5060198;28;20032;-75
2021/10/25 12:40:49;;;;;;;0.00;0.00;;;33.50;23.70;;;;;;5058753;28;20021;-74
2021/10/25 12:43:16;;;;;;;0.00;0.00;;;33.50;23.70;;;;;;5056782;28;20406;-75
2021/10/25 12:45:56;;;;;;;0.00;0.00;;;33.60;23.80;;;;;;5056530;28;20032;-76
2021/10/25 12:48:22;;;;;;;0.00;0.00;;;33.60;23.80;;;;;;5056964;28;20033;-75
2021/10/25 12:50:50;;;;;;;0.00;0.00;;;33.50;23.70;;;;;;5055070;28;20359;-75
2021/10/25 12:53:21;;;;;;;0.00;0.00;;;33.60;23.80;;;;;;5071795;28;20021;-76
2021/10/25 12:56:04;;;;;;;0.00;0.00;;;33.60;23.70;;;;;;5056361;28;20358;-75
2021/10/25 12:58:31;;;;;;;0.00;0.00;;;33.40;23.60;;;;;;5056253;28;20075;-75
2021/10/25 13:01:08;;;;;;;0.00;0.00;;;33.30;23.70;;;;;;5054745;28;20036;-74
2021/10/25 13:03:35;;;;;;;0.00;0.00;;;33.00;23.60;;;;;;5056539;28;20465;-77
2021/10/25 13:06:09;;;;;;;0.00;0.00;;;32.80;23.80;;;;;;5056474;28;20067;-75
2021/10/25 13:08:36;;;;;;;0.00;0.00;;;32.50;23.70;;;;;;5055949;28;20037;-75
2021/10/25 13:11:04;;;;;;;0.00;0.00;;;32.30;23.80;;;;;;5071504;28;20025;-75
2021/10/25 13:13:35;;;;;;;0.00;0.00;;;32.00;23.80;;;;;;5056504;28;20037;-74
2021/10/25 13:16:05;;;;;;;0.00;0.00;;;31.90;23.80;;;;;;5055849;28;20032;-75
2021/10/25 13:18:31;;;;;;;0.00;0.00;;;31.80;23.80;;;;;;5039024;28;20438;-74
2021/10/25 13:20:58;;;;;;;0.00;0.00;;;31.70;23.90;;;;;;5055547;28;20099;-77
2021/10/25 13:23:23;;;;;;;0.00;0.00;;;31.50;23.90;;;;;;5056457;28;20110;-76
2021/10/25 13:25:52;;;;;;;0.00;0.00;;;31.40;23.90;;;;;;5056105;28;20025;-77
2021/10/25 13:28:18;;;;;;;0.00;0.00;;;31.20;23.90;;;;;;5055617;28;20040;-75
2021/10/25 13:30:44;;;;;;;0.00;0.00;;;31.00;24.00;;;;;;5071077;28;20031;-75
2021/10/25 13:33:10;;;;;;;0.00;0.00;;;31.00;24.00;;;;;;5054578;28;20021;-76
2021/10/25 13:35:36;;;;;;;0.00;0.00;;;30.80;24.10;;;;;;5055886;28;20032;-77
2021/10/25 13:38:02;;;;;;;0.00;0.00;;;30.60;24.10;;;;;;5055500;28;20037;-76
2021/10/25 13:40:30;;;;;;;0.00;0.00;;;30.30;24.10;;;;;;5055364;28;20115;-74
2021/10/25 13:42:57;;;;;;;0.00;0.00;;;30.10;24.20;;;;;;5055367;28;20091;-75
2021/10/25 13:45:24;;;;;;;0.00;0.00;;;29.80;24.20;;;;;;5055121;28;20155;-76
2021/10/25 13:47:50;;;;;;;0.00;0.00;;;29.50;24.20;;;;;;5054974;28;20032;-75
2021/10/25 13:50:16;;;;;;;0.00;0.00;;;29.20;24.20;;;;;;5055595;28;20086;-75
2021/10/25 13:52:43;;;;;;;0.00;0.00;;;29.00;24.50;;;;;;5069979;28;20032;-76
2021/10/25 13:55:09;;;;;;;0.00;0.00;;;28.80;24.50;;;;;;5054948;28;20059;-75
2021/10/25 13:57:38;;;;;;;0.00;0.00;;;28.60;24.60;;;;;;5055340;28;20039;-74
2021/10/25 14:00:07;;;;;;;0.00;0.00;;;28.30;24.70;;;;;;5055280;28;20017;-75
2021/10/25 14:02:32;;;;;;;0.00;0.00;;;28.00;24.80;;;;;;5054789;28;20469;-76
2021/10/25 14:04:59;;;;;;;0.00;0.00;;;27.70;24.90;;;;;;5054742;28;20031;-75
2021/10/25 14:07:33;;;;;;;0.00;0.00;;;27.40;25.10;;;;;;5070160;28;20476;-75
2021/10/25 14:10:09;;;;;;;0.00;0.00;;;27.00;25.20;;;;;;5054916;28;20029;-76
2021/10/25 14:12:37;;;;;;;0.00;0.00;;;26.60;25.30;;;;;;5054527;28;20114;-75
2021/10/25 14:17:42;;;;;;;0.00;0.00;;;25.70;25.70;;;;;;5054991;28;20114;-77
2021/10/25 14:20:08;;;;;;;0.00;0.00;;;25.30;25.90;;;;;;5053533;28;20453;-76
2021/10/25 14:22:34;;;;;;;0.00;0.00;;;24.90;26.10;;;;;;5054317;28;20457;-76
2021/10/25 14:25:00;;;;;;;0.00;0.00;;;24.50;26.40;;;;;;5054837;28;20096;-75
2021/10/25 14:27:27;;;;;;;0.00;0.00;;;24.00;26.60;;;;;;5054443;28;20071;-76
2021/10/25 14:29:53;;;;;;;0.00;0.00;;;23.40;26.80;;;;;;5054113;28;20029;-77
2021/10/25 14:32:19;;;;;;;0.00;0.00;;;22.80;27.10;;;;;;5054347;28;20031;-75
2021/10/25 14:34:44;;;;;;;0.00;0.00;;;22.30;27.40;;;;;;5054307;28;20021;-74
2021/10/25 14:37:12;;;;;;;0.00;0.00;;;21.70;27.80;;;;;;5054074;28;20025;-75
2021/10/25 14:39:44;;;;;;;0.00;0.00;;;21.10;28.30;;;;;;5054253;28;20378;-76
2021/10/25 14:55:30;;;;;;;0.00;0.00;;;16.80;31.20;;;;;;5054261;28;20078;-74
2021/10/25 14:57:55;;;;;;;0.00;0.00;;;16.10;31.90;;;;;;5053985;28;20095;-75
2021/10/25 15:00:22;;;;;;;0.00;0.00;;;15.50;32.50;;;;;;5054141;28;20449;-74
2021/10/25 15:02:50;;;;;;;0.00;0.00;;;15.00;33.20;;;;;;5054329;28;20043;-75
2021/10/25 15:05:16;;;;;;;0.00;0.00;;;14.60;34.00;;;;;;5069120;28;20025;-75
2021/10/25 15:07:43;;;;;;;0.00;0.00;;;14.20;34.50;;;;;;5053762;28;20029;-76
2021/10/25 15:10:10;;;;;;;0.00;0.00;;;13.90;34.90;;;;;;5053755;28;20021;-74
2021/10/25 15:12:36;;;;;;;0.00;0.00;;;13.70;35.50;;;;;;5052664;28;20453;-74